createdAt,value
2019-06-26T00:00:09.079Z,57.43
2019-06-26T00:01:09.325Z,57.82
2019-06-26T00:02:09.095Z,57.43
2019-06-26T00:03:09.120Z,57.33
2019-06-26T00:04:09.412Z,57.62
2019-06-26T00:05:09.442Z,57.53
2019-06-26T00:06:09.462Z,57.43
2019-06-26T00:07:09.252Z,57.53
2019-06-26T00:08:09.570Z,57.43
2019-06-26T00:09:09.288Z,57.53
2019-06-26T00:10:09.576Z,57.53
2019-06-26T00:11:09.604Z,57.62
2019-06-26T00:12:09.631Z,57.43
2019-06-26T00:13:22.058Z,57.53
2019-06-26T00:14:09.685Z,57.43
2019-06-26T00:15:09.725Z,57.53
2019-06-26T00:16:09.747Z,57.53
2019-06-26T00:17:09.515Z,57.33
2019-06-26T00:18:09.823Z,57.53
2019-06-26T00:19:09.834Z,57.43
2019-06-26T00:20:09.865Z,57.53
2019-06-26T00:21:09.625Z,57.53
2019-06-26T00:22:09.648Z,57.33
2019-06-26T00:23:09.940Z,57.62
2019-06-26T00:24:09.969Z,57.23
2019-06-26T00:25:09.741Z,57.23
2019-06-26T00:26:09.762Z,57.62
2019-06-26T00:27:10.082Z,57.33
2019-06-26T00:28:09.815Z,57.43
2019-06-26T00:29:10.100Z,57.53
2019-06-26T00:30:10.137Z,57.43
2019-06-26T00:31:10.193Z,57.53
2019-06-26T00:32:09.929Z,57.6
2019-06-26T00:33:10.214Z,57.4
2019-06-26T00:34:09.982Z,57.82
2019-06-26T00:35:10.009Z,57.31
2019-06-26T00:36:10.053Z,57.6
2019-06-26T00:37:10.325Z,57.4
2019-06-26T00:38:10.092Z,57.69
2019-06-26T00:39:10.388Z,57.4
2019-06-26T00:40:10.413Z,57.4
2019-06-26T00:41:10.526Z,57.98
2019-06-26T00:42:10.467Z,57.69
2019-06-26T00:43:10.230Z,57.4
2019-06-26T00:44:10.518Z,57.79
2019-06-26T00:45:10.301Z,57.5
2019-06-26T00:46:10.312Z,57.4
2019-06-26T00:47:10.344Z,57.6
2019-06-26T00:48:10.635Z,57.69
2019-06-26T00:49:10.672Z,57.5
2019-06-26T00:50:10.427Z,57.6
2019-06-26T00:51:10.462Z,57.6
2019-06-26T00:52:10.744Z,57.5
2019-06-26T00:53:10.508Z,57.79
2019-06-26T00:54:10.953Z,57.69
2019-06-26T00:55:10.614Z,57.69
2019-06-26T00:56:10.855Z,57.69
2019-06-26T00:57:10.624Z,57.6
2019-06-26T00:58:10.658Z,58.28
2019-06-26T00:59:10.942Z,57.69
2019-06-26T01:00:10.967Z,57.4
2019-06-26T01:01:10.735Z,57.6
2019-06-26T01:02:11.083Z,58.18
2019-06-26T01:03:11.054Z,57.6
2019-06-26T01:04:11.082Z,57.89
2019-06-26T01:05:11.102Z,58.28
2019-06-26T01:06:10.885Z,57.79
2019-06-26T01:07:11.157Z,58.18
2019-06-26T01:08:11.183Z,58.28
2019-06-26T01:09:11.222Z,57.6
2019-06-26T01:10:11.239Z,57.6
2019-06-26T01:11:11.031Z,58.08
2019-06-26T01:12:11.718Z,57.69
2019-06-26T01:13:11.324Z,58.28
2019-06-26T01:14:11.376Z,58.18
2019-06-26T01:15:11.387Z,57.98
2019-06-26T01:16:11.417Z,58.08
2019-06-26T01:17:11.438Z,57.98
2019-06-26T01:18:11.462Z,58.18
2019-06-26T01:19:11.246Z,57.98
2019-06-26T01:20:11.544Z,57.89
2019-06-26T01:21:11.285Z,57.89
2019-06-26T01:22:11.616Z,58.28
2019-06-26T01:23:11.339Z,58.37
2019-06-26T01:24:11.629Z,57.89
2019-06-26T01:25:11.395Z,57.89
2019-06-26T01:26:11.682Z,57.89
2019-06-26T01:27:11.721Z,57.79
2019-06-26T01:28:11.745Z,57.89
2019-06-26T01:29:11.763Z,58.15
2019-06-26T01:30:11.801Z,57.98
2019-06-26T01:31:11.561Z,57.96
2019-06-26T01:32:11.851Z,57.96
2019-06-26T01:33:11.945Z,58.25
2019-06-26T01:34:11.652Z,58.28
2019-06-26T01:35:11.669Z,57.96
2019-06-26T01:36:11.958Z,57.96
2019-06-26T01:37:11.988Z,57.96
2019-06-26T01:38:11.754Z,57.76
2019-06-26T01:39:12.043Z,58.05
2019-06-26T01:40:12.096Z,57.76
2019-06-26T01:41:12.165Z,58.05
2019-06-26T01:42:12.125Z,58.15
2019-06-26T01:43:12.158Z,57.76
2019-06-26T01:44:17.595Z,57.96
2019-06-26T01:45:12.226Z,57.76
2019-06-26T01:46:11.976Z,57.76
2019-06-26T01:47:12.009Z,58.05
2019-06-26T01:48:12.297Z,57.76
2019-06-26T01:49:12.062Z,57.86
2019-06-26T01:50:12.355Z,57.96
2019-06-26T01:51:12.115Z,57.76
2019-06-26T01:52:12.165Z,57.86
2019-06-26T01:53:12.440Z,57.86
2019-06-26T01:54:12.205Z,57.76
2019-06-26T01:55:12.487Z,57.86
2019-06-26T01:56:12.512Z,57.86
2019-06-26T01:57:12.549Z,57.67
2019-06-26T01:58:12.307Z,57.76
2019-06-26T01:59:12.603Z,57.76
2019-06-26T02:00:12.364Z,57.67
2019-06-26T02:01:12.391Z,57.76
2019-06-26T02:02:12.678Z,57.76
2019-06-26T02:03:12.446Z,57.76
2019-06-26T02:04:15.549Z,57.76
2019-06-26T02:05:12.761Z,57.76
2019-06-26T02:06:12.789Z,57.86
2019-06-26T02:07:12.834Z,57.76
2019-06-26T02:08:12.880Z,57.76
2019-06-26T02:09:12.886Z,57.67
2019-06-26T02:10:12.906Z,58.05
2019-06-26T02:11:12.669Z,58.05
2019-06-26T02:12:12.951Z,58.05
2019-06-26T02:13:12.982Z,58.15
2019-06-26T02:14:13.006Z,57.86
2019-06-26T02:15:13.078Z,57.86
2019-06-26T02:16:12.801Z,57.76
2019-06-26T02:17:12.832Z,57.96
2019-06-26T02:18:13.121Z,57.86
2019-06-26T02:19:12.886Z,57.76
2019-06-26T02:20:13.174Z,57.47
2019-06-26T02:21:13.199Z,57.76
2019-06-26T02:22:12.969Z,57.96
2019-06-26T02:23:13.259Z,57.86
2019-06-26T02:24:13.283Z,57.76
2019-06-26T02:25:13.049Z,57.76
2019-06-26T02:26:13.341Z,57.76
2019-06-26T02:27:13.365Z,57.76
2019-06-26T02:28:13.134Z,57.67
2019-06-26T02:29:13.471Z,57.76
2019-06-26T02:30:13.456Z,57.76
2019-06-26T02:31:13.481Z,57.76
2019-06-26T02:32:13.245Z,57.76
2019-06-26T02:33:13.536Z,58.25
2019-06-26T02:34:13.561Z,57.67
2019-06-26T02:35:13.333Z,57.96
2019-06-26T02:36:13.354Z,58.05
2019-06-26T02:37:13.640Z,57.76
2019-06-26T02:38:13.668Z,58.54
2019-06-26T02:39:13.693Z,58.34
2019-06-26T02:40:13.739Z,58.25
2019-06-26T02:41:13.774Z,58.25
2019-06-26T02:42:13.783Z,58.34
2019-06-26T02:43:13.544Z,58.44
2019-06-26T02:44:13.835Z,58.25
2019-06-26T02:45:13.883Z,58.44
2019-06-26T02:46:13.625Z,58.25
2019-06-26T02:47:22.556Z,58.25
2019-06-26T02:48:13.940Z,58.22
2019-06-26T02:49:13.973Z,58.44
2019-06-26T02:50:14.030Z,58.15
2019-06-26T02:51:13.775Z,58.05
2019-06-26T02:52:14.060Z,58.34
2019-06-26T02:53:14.081Z,58.22
2019-06-26T02:54:14.122Z,58.34
2019-06-26T02:55:13.969Z,58.25
2019-06-26T02:56:13.898Z,58.22
2019-06-26T02:57:14.201Z,58.25
2019-06-26T02:58:13.960Z,58.34
2019-06-26T02:59:13.984Z,58.25
2019-06-26T03:00:14.276Z,58.15
2019-06-26T03:01:14.042Z,58.22
2019-06-26T03:02:14.359Z,58.25
2019-06-26T03:03:14.369Z,58.44
2019-06-26T03:04:14.384Z,58.22
2019-06-26T03:05:14.409Z,58.12
2019-06-26T03:06:14.172Z,58.34
2019-06-26T03:07:14.460Z,58.22
2019-06-26T03:08:14.489Z,58.25
2019-06-26T03:09:14.513Z,58.31
2019-06-26T03:10:14.543Z,58.31
2019-06-26T03:11:14.660Z,58.22
2019-06-26T03:12:14.336Z,58.12
2019-06-26T03:13:14.623Z,58.31
2019-06-26T03:14:14.654Z,58.12
2019-06-26T03:15:14.680Z,58.22
2019-06-26T03:16:14.448Z,58.31
2019-06-26T03:17:14.733Z,58.12
2019-06-26T03:18:14.501Z,58.03
2019-06-26T03:19:14.809Z,58.41
2019-06-26T03:20:14.562Z,58.03
2019-06-26T03:21:14.584Z,58.31
2019-06-26T03:22:14.875Z,58.31
2019-06-26T03:23:14.898Z,58.03
2019-06-26T03:24:14.927Z,58.22
2019-06-26T03:25:14.690Z,58.12
2019-06-26T03:26:14.981Z,58.41
2019-06-26T03:27:14.746Z,58.22
2019-06-26T03:28:14.772Z,58.22
2019-06-26T03:29:15.064Z,58.03
2019-06-26T03:30:15.127Z,57.93
2019-06-26T03:31:15.125Z,58.22
2019-06-26T03:32:15.158Z,58.03
2019-06-26T03:33:14.918Z,57.93
2019-06-26T03:34:15.197Z,58.03
2019-06-26T03:35:15.228Z,57.93
2019-06-26T03:36:15.256Z,58.22
2019-06-26T03:37:15.016Z,58.03
2019-06-26T03:38:15.307Z,58.12
2019-06-26T03:39:15.071Z,58.12
2019-06-26T03:40:15.110Z,58.41
2019-06-26T03:41:15.158Z,58.12
2019-06-26T03:42:15.420Z,58.12
2019-06-26T03:43:15.446Z,58.31
2019-06-26T03:44:15.522Z,58.12
2019-06-26T03:45:28.033Z,58.41
2019-06-26T03:46:15.528Z,58.41
2019-06-26T03:47:15.555Z,58.41
2019-06-26T03:48:15.582Z,58.22
2019-06-26T03:49:15.609Z,58.12
2019-06-26T03:50:15.373Z,58.54
2019-06-26T03:51:16.449Z,58.51
2019-06-26T03:52:15.433Z,58.31
2019-06-26T03:53:15.715Z,58.22
2019-06-26T03:54:15.785Z,57.76
2019-06-26T03:55:15.772Z,57.64
2019-06-26T03:56:15.809Z,58.05
2019-06-26T03:57:15.847Z,58.12
2019-06-26T03:58:15.590Z,57.86
2019-06-26T03:59:15.877Z,57.86
2019-06-26T04:00:15.910Z,57.96
2019-06-26T04:01:15.676Z,58.05
2019-06-26T04:02:16.020Z,57.96
2019-06-26T04:03:15.998Z,57.93
2019-06-26T04:04:16.014Z,57.86
2019-06-26T04:05:16.038Z,57.86
2019-06-26T04:06:16.078Z,57.96
2019-06-26T04:07:16.091Z,58.05
2019-06-26T04:08:16.121Z,57.86
2019-06-26T04:09:15.894Z,57.96
2019-06-26T04:10:16.174Z,57.86
2019-06-26T04:11:16.203Z,57.86
2019-06-26T04:12:16.262Z,58.12
2019-06-26T04:13:16.257Z,57.86
2019-06-26T04:14:16.293Z,57.67
2019-06-26T04:15:16.320Z,57.57
2019-06-26T04:16:16.082Z,57.47
2019-06-26T04:17:16.366Z,57.57
2019-06-26T04:18:16.390Z,57.47
2019-06-26T04:19:16.428Z,57.67
2019-06-26T04:20:16.451Z,57.86
2019-06-26T04:21:16.474Z,57.67
2019-06-26T04:22:16.501Z,57.57
2019-06-26T04:23:16.528Z,57.18
2019-06-26T04:24:16.570Z,56.5
2019-06-26T04:25:16.588Z,57.08
2019-06-26T04:26:16.445Z,56.92
2019-06-26T04:27:16.383Z,56.72
2019-06-26T04:28:16.669Z,57.01
2019-06-26T04:29:16.695Z,56.6
2019-06-26T04:30:16.720Z,56.82
2019-06-26T04:31:16.752Z,56.52
2019-06-26T04:32:16.774Z,57.01
2019-06-26T04:33:16.544Z,57.11
2019-06-26T04:34:16.828Z,57.11
2019-06-26T04:35:16.857Z,56.52
2019-06-26T04:36:16.622Z,56.92
2019-06-26T04:37:16.659Z,56.82
2019-06-26T04:38:16.939Z,56.92
2019-06-26T04:39:16.971Z,56.92
2019-06-26T04:40:20.212Z,56.92
2019-06-26T04:41:17.022Z,56.82
2019-06-26T04:42:16.795Z,56.43
2019-06-26T04:43:17.077Z,56.72
2019-06-26T04:44:17.119Z,56.82
2019-06-26T04:45:16.870Z,56.82
2019-06-26T04:46:16.896Z,56.52
2019-06-26T04:47:16.922Z,56.62
2019-06-26T04:48:16.951Z,56.72
2019-06-26T04:49:16.978Z,56.43
2019-06-26T04:50:17.012Z,56.62
2019-06-26T04:51:17.323Z,57.11
2019-06-26T04:52:17.069Z,56.82
2019-06-26T04:53:17.365Z,56.72
2019-06-26T04:54:17.115Z,57.21
2019-06-26T04:55:17.405Z,56.92
2019-06-26T04:56:17.492Z,56.79
2019-06-26T04:57:17.457Z,56.89
2019-06-26T04:58:17.500Z,57.08
2019-06-26T04:59:17.251Z,56.79
2019-06-26T05:00:17.281Z,57.18
2019-06-26T05:01:17.566Z,57.08
2019-06-26T05:02:17.334Z,57.47
2019-06-26T05:03:17.628Z,57.28
2019-06-26T05:04:17.664Z,57.47
2019-06-26T05:05:17.675Z,57.76
2019-06-26T05:06:17.703Z,57.37
2019-06-26T05:07:17.730Z,57.76
2019-06-26T05:08:17.499Z,57.47
2019-06-26T05:09:17.858Z,57.47
2019-06-26T05:10:17.556Z,57.37
2019-06-26T05:11:17.585Z,57.67
2019-06-26T05:12:17.618Z,57.37
2019-06-26T05:13:17.638Z,57.47
2019-06-26T05:14:17.954Z,57.37
2019-06-26T05:15:17.688Z,57.28
2019-06-26T05:16:22.454Z,57.47
2019-06-26T05:17:18.038Z,57.37
2019-06-26T05:18:18.040Z,57.47
2019-06-26T05:19:18.058Z,57.47
2019-06-26T05:20:18.089Z,57.28
2019-06-26T05:21:18.159Z,57.37
2019-06-26T05:22:17.889Z,57.37
2019-06-26T05:23:17.909Z,57.47
2019-06-26T05:24:18.196Z,57.57
2019-06-26T05:25:17.963Z,57.67
2019-06-26T05:26:18.247Z,57.67
2019-06-26T05:27:18.024Z,57.37
2019-06-26T05:28:18.051Z,57.47
2019-06-26T05:29:18.336Z,57.57
2019-06-26T05:30:18.105Z,57.47
2019-06-26T05:31:18.394Z,57.47
2019-06-26T05:32:18.155Z,57.67
2019-06-26T05:33:18.184Z,57.47
2019-06-26T05:34:18.211Z,57.37
2019-06-26T05:35:18.236Z,57.67
2019-06-26T05:36:18.522Z,57.67
2019-06-26T05:37:18.308Z,57.37
2019-06-26T05:38:18.576Z,57.37
2019-06-26T05:39:18.606Z,57.28
2019-06-26T05:40:18.632Z,57.76
2019-06-26T05:41:18.662Z,57.76
2019-06-26T05:42:18.427Z,57.47
2019-06-26T05:43:18.719Z,57.37
2019-06-26T05:44:18.742Z,57.37
2019-06-26T05:45:18.774Z,57.28
2019-06-26T05:46:33.083Z,57.28
2019-06-26T05:47:21.270Z,57.37
2019-06-26T05:48:18.591Z,57.47
2019-06-26T05:49:18.620Z,57.37
2019-06-26T05:50:18.909Z,57.37
2019-06-26T05:51:18.942Z,57.57
2019-06-26T05:52:19.298Z,57.31
2019-06-26T05:53:19.010Z,57.4
2019-06-26T05:54:19.016Z,57.6
2019-06-26T05:55:18.784Z,57.69
2019-06-26T05:56:18.810Z,57.6
2019-06-26T05:57:19.099Z,57.5
2019-06-26T05:58:19.130Z,57.69
2019-06-26T05:59:19.155Z,57.4
2019-06-26T06:00:19.353Z,57.5
2019-06-26T06:01:18.950Z,57.21
2019-06-26T06:02:19.239Z,57.11
2019-06-26T06:03:19.266Z,57.01
2019-06-26T06:04:19.298Z,56.82
2019-06-26T06:05:19.318Z,56.62
2019-06-26T06:06:19.085Z,57.11
2019-06-26T06:07:19.116Z,56.72
2019-06-26T06:08:19.143Z,56.72
2019-06-26T06:09:19.174Z,56.62
2019-06-26T06:10:19.555Z,56.72
2019-06-26T06:11:19.485Z,57.11
2019-06-26T06:12:19.517Z,56.72
2019-06-26T06:13:19.550Z,56.72
2019-06-26T06:14:19.571Z,56.72
2019-06-26T06:15:19.598Z,56.72
2019-06-26T06:16:19.452Z,56.72
2019-06-26T06:17:19.397Z,56.82
2019-06-26T06:18:19.676Z,56.82
2019-06-26T06:19:19.818Z,56.82
2019-06-26T06:20:19.473Z,56.72
2019-06-26T06:21:19.759Z,56.92
2019-06-26T06:22:19.790Z,56.56
2019-06-26T06:23:19.818Z,56.62
2019-06-26T06:24:19.857Z,56.85
2019-06-26T06:25:19.878Z,57.23
2019-06-26T06:26:19.685Z,56.82
2019-06-26T06:27:19.925Z,56.62
2019-06-26T06:28:19.695Z,57.21
2019-06-26T06:29:19.979Z,57.21
2019-06-26T06:30:20.037Z,57.11
2019-06-26T06:31:19.781Z,57.01
2019-06-26T06:32:19.804Z,57.23
2019-06-26T06:33:20.089Z,57.21
2019-06-26T06:34:20.117Z,56.95
2019-06-26T06:35:20.152Z,57.21
2019-06-26T06:36:19.923Z,57.11
2019-06-26T06:37:20.205Z,56.95
2019-06-26T06:38:19.976Z,57.14
2019-06-26T06:39:20.254Z,56.85
2019-06-26T06:40:20.026Z,57.14
2019-06-26T06:41:20.312Z,57.14
2019-06-26T06:42:20.080Z,57.14
2019-06-26T06:43:20.370Z,57.23
2019-06-26T06:44:20.132Z,56.95
2019-06-26T06:45:20.484Z,57.23
2019-06-26T06:46:20.187Z,56.95
2019-06-26T06:47:20.507Z,57.33
2019-06-26T06:48:20.247Z,57.23
2019-06-26T06:49:20.284Z,57.33
2019-06-26T06:50:20.302Z,57.04
2019-06-26T06:51:20.588Z,57.23
2019-06-26T06:52:20.613Z,57.23
2019-06-26T06:53:20.645Z,57.23
2019-06-26T06:54:20.715Z,57.53
2019-06-26T06:55:20.745Z,57.33
2019-06-26T06:56:20.723Z,57.14
2019-06-26T06:57:20.496Z,57.14
2019-06-26T06:58:20.781Z,57.14
2019-06-26T06:59:20.810Z,57.33
2019-06-26T07:00:20.874Z,57.14
2019-06-26T07:01:20.862Z,57.14
2019-06-26T07:02:20.890Z,57.14
2019-06-26T07:03:20.658Z,57.14
2019-06-26T07:04:20.683Z,57.33
2019-06-26T07:05:20.971Z,56.95
2019-06-26T07:06:20.785Z,57.14
2019-06-26T07:07:20.767Z,57.04
2019-06-26T07:08:21.058Z,57.14
2019-06-26T07:09:21.099Z,57.23
2019-06-26T07:10:20.848Z,57.33
2019-06-26T07:11:21.136Z,56.95
2019-06-26T07:12:23.401Z,57.23
2019-06-26T07:13:21.196Z,56.75
2019-06-26T07:14:21.225Z,57.53
2019-06-26T07:15:20.987Z,57.23
2019-06-26T07:16:21.015Z,57.23
2019-06-26T07:17:23.676Z,57.53
2019-06-26T07:18:21.076Z,57.33
2019-06-26T07:19:21.360Z,57.23
2019-06-26T07:20:21.398Z,57.33
2019-06-26T07:21:21.416Z,57.23
2019-06-26T07:22:21.200Z,57.23
2019-06-26T07:23:21.477Z,57.23
2019-06-26T07:24:21.504Z,57.33
2019-06-26T07:25:21.537Z,57.23
2019-06-26T07:26:21.292Z,57.53
2019-06-26T07:27:21.581Z,57.33
2019-06-26T07:28:21.729Z,57.14
2019-06-26T07:29:21.633Z,57.33
2019-06-26T07:30:21.835Z,56.95
2019-06-26T07:31:21.726Z,57.33
2019-06-26T07:32:21.756Z,57.14
2019-06-26T07:33:21.743Z,57.04
2019-06-26T07:34:21.588Z,56.95
2019-06-26T07:35:21.805Z,57.23
2019-06-26T07:36:21.836Z,57.14
2019-06-26T07:37:21.854Z,57.14
2019-06-26T07:38:21.908Z,57.23
2019-06-26T07:39:21.911Z,56.65
2019-06-26T07:40:22.037Z,56.65
2019-06-26T07:41:21.973Z,57.33
2019-06-26T07:42:21.992Z,57.33
2019-06-26T07:43:22.021Z,56.85
2019-06-26T07:44:22.054Z,56.68
2019-06-26T07:45:26.388Z,56.95
2019-06-26T07:46:22.103Z,56.68
2019-06-26T07:47:41.753Z,56.68
2019-06-26T07:48:21.977Z,56.65
2019-06-26T07:49:22.187Z,57.14
2019-06-26T07:50:22.212Z,56.95
2019-06-26T07:51:21.991Z,56.77
2019-06-26T07:52:22.009Z,56.59
2019-06-26T07:53:22.037Z,56.68
2019-06-26T07:54:22.371Z,56.77
2019-06-26T07:55:22.091Z,56.77
2019-06-26T07:56:22.384Z,56.77
2019-06-26T07:57:22.404Z,56.77
2019-06-26T07:58:22.174Z,56.87
2019-06-26T07:59:22.463Z,56.77
2019-06-26T08:00:22.502Z,56.87
2019-06-26T08:01:22.263Z,57.17
2019-06-26T08:02:22.552Z,56.77
2019-06-26T08:03:22.581Z,57.17
2019-06-26T08:04:22.608Z,56.68
2019-06-26T08:05:22.655Z,57.07
2019-06-26T08:06:22.402Z,57.07
2019-06-26T08:07:22.423Z,57.17
2019-06-26T08:08:22.713Z,57.17
2019-06-26T08:09:22.737Z,57.17
2019-06-26T08:10:22.783Z,57.17
2019-06-26T08:11:22.539Z,57.07
2019-06-26T08:12:22.878Z,57.26
2019-06-26T08:13:22.852Z,57.17
2019-06-26T08:14:22.621Z,57.07
2019-06-26T08:15:22.910Z,57.17
2019-06-26T08:16:22.950Z,56.97
2019-06-26T08:17:22.977Z,56.77
2019-06-26T08:18:22.992Z,56.97
2019-06-26T08:19:23.076Z,57.07
2019-06-26T08:20:23.082Z,56.97
2019-06-26T08:21:23.074Z,56.68
2019-06-26T08:22:23.108Z,56.97
2019-06-26T08:23:23.231Z,56.97
2019-06-26T08:24:22.897Z,56.97
2019-06-26T08:25:23.179Z,56.77
2019-06-26T08:26:22.954Z,56.87
2019-06-26T08:27:23.237Z,57.07
2019-06-26T08:28:23.311Z,56.49
2019-06-26T08:29:23.362Z,56.68
2019-06-26T08:30:23.326Z,56.49
2019-06-26T08:31:23.596Z,56.97
2019-06-26T08:32:25.903Z,57
2019-06-26T08:33:23.414Z,56.71
2019-06-26T08:34:23.247Z,56.59
2019-06-26T08:35:23.613Z,56.49
2019-06-26T08:36:23.225Z,56.49
2019-06-26T08:37:23.516Z,56.68
2019-06-26T08:38:23.285Z,56.68
2019-06-26T08:39:23.307Z,56.61
2019-06-26T08:40:23.651Z,56.61
2019-06-26T08:41:23.625Z,56.9
2019-06-26T08:42:23.651Z,57.26
2019-06-26T08:43:23.703Z,56.97
2019-06-26T08:44:23.717Z,56.41
2019-06-26T08:45:23.768Z,56.71
2019-06-26T08:46:23.762Z,56.61
2019-06-26T08:47:23.787Z,56.71
2019-06-26T08:48:40.964Z,56.51
2019-06-26T08:49:28.784Z,57.2
2019-06-26T08:50:23.614Z,57.2
2019-06-26T08:51:23.673Z,57.1
2019-06-26T08:52:23.982Z,56.51
2019-06-26T08:53:23.958Z,57.2
2019-06-26T08:54:23.989Z,57.29
2019-06-26T08:55:24.015Z,56.51
2019-06-26T08:56:24.038Z,56.51
2019-06-26T08:57:24.068Z,57.1
2019-06-26T08:58:23.839Z,57.1
2019-06-26T08:59:24.124Z,57.1
2019-06-26T09:00:23.893Z,57.1
2019-06-26T09:01:23.917Z,57.1
2019-06-26T09:02:24.215Z,57.2
2019-06-26T09:03:24.234Z,57.1
2019-06-26T09:04:24.997Z,57.1
2019-06-26T09:05:24.100Z,57
2019-06-26T09:06:24.319Z,56.9
2019-06-26T09:07:24.351Z,57.29
2019-06-26T09:08:24.593Z,57.29
2019-06-26T09:09:24.473Z,57.2
2019-06-26T09:10:24.433Z,57.39
2019-06-26T09:11:24.466Z,56.9
2019-06-26T09:12:24.489Z,57.29
2019-06-26T09:13:24.521Z,57.29
2019-06-26T09:14:24.586Z,56.9
2019-06-26T09:15:24.568Z,57.32
2019-06-26T09:16:24.599Z,57.12
2019-06-26T09:17:24.628Z,57.1
2019-06-26T09:18:37.719Z,57.32
2019-06-26T09:19:24.678Z,57.51
2019-06-26T09:20:24.710Z,57.32
2019-06-26T09:21:24.488Z,57.32
2019-06-26T09:22:24.505Z,57.42
2019-06-26T09:23:24.535Z,57.32
2019-06-26T09:24:24.560Z,57.22
2019-06-26T09:25:24.960Z,57.03
2019-06-26T09:26:24.887Z,56.64
2019-06-26T09:27:24.645Z,57.12
2019-06-26T09:28:24.933Z,56.93
2019-06-26T09:29:26.513Z,56.93
2019-06-26T09:30:24.737Z,56.93
2019-06-26T09:31:25.077Z,56.84
2019-06-26T09:32:25.069Z,57.22
2019-06-26T09:33:25.208Z,57.12
2019-06-26T09:34:25.137Z,57.22
2019-06-26T09:35:25.151Z,56.64
2019-06-26T09:36:25.162Z,57.12
2019-06-26T09:37:25.207Z,57.22
2019-06-26T09:38:25.215Z,56.96
2019-06-26T09:39:24.981Z,56.54
2019-06-26T09:40:25.270Z,57.35
2019-06-26T09:41:25.040Z,57.32
2019-06-26T09:42:25.071Z,57.32
2019-06-26T09:43:25.092Z,57.22
2019-06-26T09:44:25.119Z,57.32
2019-06-26T09:45:25.409Z,56.54
2019-06-26T09:46:25.192Z,56.76
2019-06-26T09:47:25.465Z,57.15
2019-06-26T09:48:25.492Z,56.47
2019-06-26T09:49:25.518Z,56.96
2019-06-26T09:50:25.289Z,57.25
2019-06-26T09:51:25.333Z,56.76
2019-06-26T09:52:25.645Z,57.06
2019-06-26T09:53:25.379Z,56.47
2019-06-26T09:54:25.664Z,56.96
2019-06-26T09:55:25.432Z,56.67
2019-06-26T09:56:25.731Z,56.67
2019-06-26T09:57:25.511Z,56.67
2019-06-26T09:58:25.789Z,56.96
2019-06-26T09:59:25.827Z,56.76
2019-06-26T10:00:25.834Z,56.76
2019-06-26T10:01:25.888Z,56.86
2019-06-26T10:02:25.885Z,56.76
2019-06-26T10:03:25.654Z,57.06
2019-06-26T10:04:25.975Z,57.15
2019-06-26T10:05:25.710Z,56.96
2019-06-26T10:06:25.996Z,56.96
2019-06-26T10:07:26.026Z,57.06
2019-06-26T10:08:25.793Z,57.25
2019-06-26T10:09:25.821Z,57.15
2019-06-26T10:10:25.847Z,57.25
2019-06-26T10:11:26.141Z,57.15
2019-06-26T10:12:25.910Z,57.15
2019-06-26T10:13:25.936Z,57.15
2019-06-26T10:14:40.941Z,57.15
2019-06-26T10:15:25.996Z,57.25
2019-06-26T10:16:26.284Z,57.25
2019-06-26T10:17:26.340Z,57.25
2019-06-26T10:18:26.336Z,56.86
2019-06-26T10:19:26.373Z,56.76
2019-06-26T10:20:26.414Z,56.76
2019-06-26T10:21:26.166Z,56.96
2019-06-26T10:22:26.196Z,56.76
2019-06-26T10:23:26.479Z,57.06
2019-06-26T10:24:26.530Z,57.09
2019-06-26T10:25:26.541Z,56.86
2019-06-26T10:26:26.569Z,57.06
2019-06-26T10:27:26.340Z,57.09
2019-06-26T10:28:26.643Z,56.86
2019-06-26T10:29:26.435Z,57.45
2019-06-26T10:30:26.578Z,57.25
2019-06-26T10:31:26.716Z,57.28
2019-06-26T10:32:26.732Z,57.09
2019-06-26T10:33:27.054Z,57.35
2019-06-26T10:34:26.792Z,57.09
2019-06-26T10:35:26.816Z,57.37
2019-06-26T10:36:27.366Z,57.18
2019-06-26T10:37:26.952Z,57.47
2019-06-26T10:38:26.646Z,57.37
2019-06-26T10:39:26.943Z,57.35
2019-06-26T10:40:26.704Z,57.37
2019-06-26T10:41:26.733Z,57.47
2019-06-26T10:42:27.015Z,57.64
2019-06-26T10:43:26.798Z,57.47
2019-06-26T10:44:27.069Z,57.57
2019-06-26T10:45:27.109Z,57.37
2019-06-26T10:46:26.893Z,57.37
2019-06-26T10:47:26.899Z,57.76
2019-06-26T10:48:27.183Z,57.76
2019-06-26T10:49:30.091Z,57.67
2019-06-26T10:50:27.242Z,57.57
2019-06-26T10:51:27.010Z,57.67
2019-06-26T10:52:27.042Z,57.57
2019-06-26T10:53:27.325Z,57.96
2019-06-26T10:54:27.353Z,57.96
2019-06-26T10:55:27.402Z,57.76
2019-06-26T10:56:31.214Z,58.06
2019-06-26T10:57:27.457Z,57.76
2019-06-26T10:58:27.471Z,57.86
2019-06-26T10:59:27.498Z,57.86
2019-06-26T11:00:27.525Z,57.76
2019-06-26T11:01:27.562Z,57.76
2019-06-26T11:02:27.584Z,57.86
2019-06-26T11:03:27.356Z,57.76
2019-06-26T11:04:27.672Z,57.96
2019-06-26T11:05:27.668Z,57.86
2019-06-26T11:06:27.696Z,57.76
2019-06-26T11:07:27.721Z,57.76
2019-06-26T11:08:27.758Z,57.67
2019-06-26T11:09:27.784Z,57.76
2019-06-26T11:10:27.845Z,57.96
2019-06-26T11:11:27.588Z,57.76
2019-06-26T11:12:27.941Z,57.76
2019-06-26T11:13:27.633Z,57.79
2019-06-26T11:14:27.674Z,57.86
2019-06-26T11:15:27.690Z,57.76
2019-06-26T11:16:27.981Z,57.76
2019-06-26T11:17:28.022Z,57.7
2019-06-26T11:18:28.336Z,57.89
2019-06-26T11:19:45.026Z,57.89
2019-06-26T11:20:28.095Z,57.76
2019-06-26T11:21:28.132Z,57.79
2019-06-26T11:22:27.893Z,57.89
2019-06-26T11:23:28.178Z,57.76
2019-06-26T11:24:27.947Z,57.96
2019-06-26T11:25:27.979Z,57.89
2019-06-26T11:26:28.011Z,57.57
2019-06-26T11:27:28.030Z,57.89
2019-06-26T11:28:28.322Z,57.6
2019-06-26T11:29:28.087Z,57.6
2019-06-26T11:30:28.383Z,57.6
2019-06-26T11:31:28.415Z,57.89
2019-06-26T11:32:28.174Z,57.89
2019-06-26T11:33:28.487Z,57.79
2019-06-26T11:34:28.520Z,57.79
2019-06-26T11:35:28.595Z,57.79
2019-06-26T11:36:28.554Z,57.79
2019-06-26T11:37:28.314Z,57.6
2019-06-26T11:38:28.346Z,57.7
2019-06-26T11:39:28.374Z,57.7
2019-06-26T11:40:28.407Z,57.6
2019-06-26T11:41:28.690Z,57.89
2019-06-26T11:42:32.526Z,57.7
2019-06-26T11:43:28.825Z,57.7
2019-06-26T11:44:28.771Z,57.79
2019-06-26T11:45:28.556Z,57.99
2019-06-26T11:46:28.586Z,57.7
2019-06-26T11:47:28.609Z,57.79
2019-06-26T11:48:28.926Z,57.7
2019-06-26T11:49:28.915Z,57.79
2019-06-26T11:50:28.945Z,57.89
2019-06-26T11:51:28.976Z,57.7
2019-06-26T11:52:29.006Z,57.79
2019-06-26T11:53:29.148Z,57.79
2019-06-26T11:54:28.811Z,57.89
2019-06-26T11:55:29.120Z,57.99
2019-06-26T11:56:29.128Z,57.89
2019-06-26T11:57:29.144Z,57.99
2019-06-26T11:58:29.173Z,57.89
2019-06-26T11:59:28.977Z,57.79
2019-06-26T12:00:29.228Z,57.79
2019-06-26T12:01:29.268Z,57.6
2019-06-26T12:02:29.291Z,57.6
2019-06-26T12:03:29.329Z,57.6
2019-06-26T12:04:29.354Z,57.6
2019-06-26T12:05:29.374Z,57.7
2019-06-26T12:06:29.426Z,57.79
2019-06-26T12:07:29.431Z,57.89
2019-06-26T12:08:29.466Z,57.7
2019-06-26T12:09:29.492Z,57.63
2019-06-26T12:10:29.526Z,57.53
2019-06-26T12:11:29.321Z,57.73
2019-06-26T12:12:29.574Z,57.43
2019-06-26T12:13:32.532Z,57.73
2019-06-26T12:14:29.631Z,57.73
2019-06-26T12:15:29.662Z,58.02
2019-06-26T12:16:29.689Z,57.82
2019-06-26T12:17:29.782Z,57.73
2019-06-26T12:18:29.488Z,57.43
2019-06-26T12:19:29.774Z,57.53
2019-06-26T12:20:29.818Z,57.43
2019-06-26T12:21:29.574Z,57.53
2019-06-26T12:22:29.897Z,57.43
2019-06-26T12:23:29.908Z,57.04
2019-06-26T12:24:29.919Z,56.85
2019-06-26T12:25:29.951Z,57.04
2019-06-26T12:26:29.990Z,56.85
2019-06-26T12:27:30.013Z,56.95
2019-06-26T12:28:30.035Z,56.95
2019-06-26T12:29:32.847Z,57.17
2019-06-26T12:30:30.115Z,57.24
2019-06-26T12:31:30.156Z,57.17
2019-06-26T12:32:30.221Z,57.04
2019-06-26T12:33:30.182Z,57.24
2019-06-26T12:34:30.459Z,57.07
2019-06-26T12:35:30.289Z,56.75
2019-06-26T12:36:30.478Z,57.07
2019-06-26T12:37:39.872Z,56.58
2019-06-26T12:38:30.327Z,56.87
2019-06-26T12:39:30.093Z,56.77
2019-06-26T12:40:33.647Z,57.07
2019-06-26T12:41:30.155Z,57.46
2019-06-26T12:42:30.445Z,56.97
2019-06-26T12:43:30.472Z,57.07
2019-06-26T12:44:30.247Z,57.17
2019-06-26T12:45:30.523Z,57.17
2019-06-26T12:46:30.656Z,57.17
2019-06-26T12:47:30.582Z,57.07
2019-06-26T12:48:30.354Z,56.97
2019-06-26T12:49:30.653Z,56.71
2019-06-26T12:50:38.382Z,56.71
2019-06-26T12:51:30.700Z,56.9
2019-06-26T12:52:30.725Z,56.9
2019-06-26T12:53:30.493Z,56.81
2019-06-26T12:54:30.535Z,56.41
2019-06-26T12:55:35.160Z,56.9